AAL2252 KSAT-KPHX
Flight info
| Callsign | AAL2252 |
|---|---|
| Flight time | N/A |
| Altitude | 32000 |
| Route | ALISS7 ALISS FST ELP DRRVR PINNG1 |
| Aircraft | A319/M-VGDW/C |
Departure
| Time | N/A |
|---|---|
| Airport | San Antonio International Airport (KSAT) |
Arrival
| Time | 2026-05-04 06:03 |
|---|---|
| Airport | Phoenix Sky Harbor International Airport (KPHX) |
| Time | Latitude | Longitude | Altitude | Speed | Heading |
|---|---|---|---|---|---|
| 2026-05-04 05:21 | 32.07796 | -108.41705 | 32044 ft | 384 kts | 275° |
| 2026-05-04 05:21 | 32.08035 | -108.43792 | 32043 ft | 384 kts | 275° |
| 2026-05-04 05:22 | 32.08283 | -108.45971 | 32042 ft | 384 kts | 275° |
| 2026-05-04 05:22 | 32.08998 | -108.52249 | 32040 ft | 384 kts | 275° |
| 2026-05-04 05:23 | 32.09707 | -108.58516 | 32037 ft | 384 kts | 275° |
| 2026-05-04 05:23 | 32.10429 | -108.64819 | 32036 ft | 384 kts | 275° |
| 2026-05-04 05:24 | 32.11154 | -108.71081 | 32036 ft | 384 kts | 274° |
| 2026-05-04 05:24 | 32.11862 | -108.77339 | 32036 ft | 383 kts | 274° |
| 2026-05-04 05:25 | 32.12561 | -108.83591 | 32036 ft | 383 kts | 274° |
| 2026-05-04 05:25 | 32.13256 | -108.89856 | 32036 ft | 384 kts | 274° |
| 2026-05-04 05:26 | 32.13949 | -108.96144 | 32036 ft | 384 kts | 274° |
| 2026-05-04 05:26 | 32.14644 | -109.02457 | 32036 ft | 385 kts | 274° |
| 2026-05-04 05:28 | 32.17438 | -109.27773 | 32036 ft | 388 kts | 275° |
| 2026-05-04 05:29 | 32.18590 | -109.34024 | 32040 ft | 389 kts | 279° |
| 2026-05-04 05:29 | 32.19907 | -109.40257 | 32043 ft | 389 kts | 279° |
| 2026-05-04 05:31 | 32.25167 | -109.65184 | 31981 ft | 389 kts | 278° |
| 2026-05-04 05:32 | 32.26459 | -109.71359 | 31962 ft | 389 kts | 278° |
| 2026-05-04 05:33 | 32.28410 | -109.80698 | 31957 ft | 389 kts | 278° |
| 2026-05-04 05:33 | 32.29711 | -109.86939 | 31959 ft | 389 kts | 278° |
| 2026-05-04 05:34 | 32.31011 | -109.93175 | 31959 ft | 389 kts | 278° |
| 2026-05-04 05:34 | 32.32326 | -109.99362 | 31956 ft | 389 kts | 278° |
| 2026-05-04 05:35 | 32.33606 | -110.05611 | 31948 ft | 389 kts | 278° |
| 2026-05-04 05:35 | 32.34881 | -110.11820 | 31946 ft | 389 kts | 278° |
| 2026-05-04 05:36 | 32.36158 | -110.18052 | 31944 ft | 389 kts | 278° |
| 2026-05-04 05:36 | 32.37436 | -110.24294 | 31947 ft | 389 kts | 278° |
| 2026-05-04 05:37 | 32.38715 | -110.30543 | 31957 ft | 389 kts | 278° |
| 2026-05-04 05:37 | 32.39983 | -110.36761 | 31964 ft | 388 kts | 278° |
| 2026-05-04 05:38 | 32.41221 | -110.42822 | 31465 ft | 374 kts | 278° |
| 2026-05-04 05:38 | 32.41836 | -110.45851 | 31210 ft | 372 kts | 278° |
| 2026-05-04 05:38 | 32.42442 | -110.48850 | 30956 ft | 371 kts | 278° |
| 2026-05-04 05:38 | 32.43048 | -110.51846 | 30702 ft | 371 kts | 278° |
| 2026-05-04 05:39 | 32.43650 | -110.54823 | 30451 ft | 372 kts | 278° |
| 2026-05-04 05:39 | 32.44862 | -110.60835 | 29901 ft | 376 kts | 278° |
| 2026-05-04 05:39 | 32.45477 | -110.63897 | 29481 ft | 379 kts | 278° |
| 2026-05-04 05:40 | 32.46967 | -110.69965 | 28142 ft | 388 kts | 286° |
| 2026-05-04 05:40 | 32.48139 | -110.72910 | 27586 ft | 390 kts | 292° |
| 2026-05-04 05:40 | 32.49562 | -110.75677 | 27202 ft | 396 kts | 296° |
| 2026-05-04 05:41 | 32.51112 | -110.78419 | 26713 ft | 397 kts | 297° |
| 2026-05-04 05:41 | 32.52678 | -110.81139 | 26206 ft | 397 kts | 298° |
| 2026-05-04 05:41 | 32.54261 | -110.83891 | 25691 ft | 397 kts | 298° |
| 2026-05-04 05:41 | 32.55816 | -110.86603 | 25186 ft | 394 kts | 298° |
| 2026-05-04 05:42 | 32.57350 | -110.89288 | 24726 ft | 389 kts | 298° |
| 2026-05-04 05:42 | 32.58859 | -110.91928 | 24186 ft | 387 kts | 298° |
| 2026-05-04 05:42 | 32.60373 | -110.94585 | 23570 ft | 387 kts | 297° |
| 2026-05-04 05:42 | 32.61871 | -110.97215 | 22945 ft | 387 kts | 298° |
| 2026-05-04 05:43 | 32.63380 | -110.99866 | 22347 ft | 386 kts | 298° |
| 2026-05-04 05:43 | 32.64894 | -111.02525 | 21752 ft | 386 kts | 298° |
| 2026-05-04 05:43 | 32.66392 | -111.05156 | 21165 ft | 385 kts | 298° |
| 2026-05-04 05:45 | 32.76711 | -111.23327 | 17961 ft | 362 kts | 300° |
| 2026-05-04 05:45 | 32.78118 | -111.25821 | 17552 ft | 360 kts | 300° |
| 2026-05-04 05:47 | 32.87631 | -111.42678 | 14731 ft | 341 kts | 301° |
| 2026-05-04 05:47 | 32.88903 | -111.44939 | 14377 ft | 337 kts | 301° |
| 2026-05-04 05:47 | 32.90205 | -111.47168 | 14296 ft | 325 kts | 308° |
| 2026-05-04 05:48 | 32.91954 | -111.48856 | 14196 ft | 319 kts | 332° |
| 2026-05-04 05:48 | 32.94087 | -111.49625 | 13821 ft | 320 kts | 349° |
| 2026-05-04 05:48 | 32.96297 | -111.50041 | 13480 ft | 318 kts | 352° |
| 2026-05-04 05:48 | 32.98472 | -111.50411 | 13158 ft | 315 kts | 352° |
| 2026-05-04 05:49 | 33.00638 | -111.50792 | 12845 ft | 312 kts | 352° |
| 2026-05-04 05:49 | 33.02774 | -111.51185 | 12553 ft | 307 kts | 351° |
| 2026-05-04 05:49 | 33.04848 | -111.51579 | 12212 ft | 299 kts | 351° |
| 2026-05-04 05:49 | 33.06855 | -111.51969 | 11888 ft | 280 kts | 351° |
| 2026-05-04 05:51 | 33.18949 | -111.54356 | 9942 ft | 245 kts | 351° |
| 2026-05-04 05:51 | 33.20562 | -111.54678 | 9669 ft | 244 kts | 351° |
| 2026-05-04 05:52 | 33.22239 | -111.55012 | 9388 ft | 242 kts | 351° |
| 2026-05-04 05:52 | 33.23902 | -111.55343 | 9115 ft | 241 kts | 351° |
| 2026-05-04 05:52 | 33.25549 | -111.55672 | 8834 ft | 241 kts | 351° |
| 2026-05-04 05:52 | 33.27220 | -111.56005 | 8566 ft | 240 kts | 351° |
| 2026-05-04 05:53 | 33.28870 | -111.56336 | 8304 ft | 239 kts | 351° |
| 2026-05-04 05:54 | 33.40308 | -111.58630 | 7143 ft | 236 kts | 350° |
| 2026-05-04 05:55 | 33.41950 | -111.58964 | 7098 ft | 237 kts | 348° |
| 2026-05-04 05:55 | 33.43409 | -111.59760 | 7017 ft | 232 kts | 313° |
| 2026-05-04 05:55 | 33.44164 | -111.61423 | 6797 ft | 226 kts | 275° |
| 2026-05-04 05:55 | 33.44191 | -111.63293 | 6595 ft | 220 kts | 266° |
| 2026-05-04 05:56 | 33.44151 | -111.65089 | 6509 ft | 212 kts | 265° |
| 2026-05-04 05:56 | 33.44122 | -111.66863 | 6333 ft | 213 kts | 266° |
| 2026-05-04 05:56 | 33.44104 | -111.68658 | 6057 ft | 212 kts | 266° |
| 2026-05-04 05:56 | 33.44094 | -111.70429 | 5775 ft | 212 kts | 266° |
| 2026-05-04 05:57 | 33.44088 | -111.72212 | 5490 ft | 212 kts | 266° |
| 2026-05-04 05:57 | 33.44085 | -111.74012 | 5203 ft | 212 kts | 266° |
| 2026-05-04 05:57 | 33.44083 | -111.75784 | 4921 ft | 212 kts | 266° |
| 2026-05-04 05:57 | 33.44081 | -111.77562 | 4637 ft | 212 kts | 266° |
| 2026-05-04 05:58 | 33.44080 | -111.79312 | 4358 ft | 212 kts | 266° |
| 2026-05-04 05:58 | 33.44078 | -111.81029 | 4086 ft | 208 kts | 266° |
| 2026-05-04 05:58 | 33.44079 | -111.82755 | 3810 ft | 202 kts | 266° |
| 2026-05-04 05:58 | 33.44079 | -111.84416 | 3545 ft | 197 kts | 266° |
| 2026-05-04 05:59 | 33.44079 | -111.86043 | 3279 ft | 185 kts | 266° |
| 2026-05-04 05:59 | 33.44080 | -111.87544 | 3031 ft | 174 kts | 266° |
| 2026-05-04 05:59 | 33.44080 | -111.88941 | 2819 ft | 162 kts | 266° |
| 2026-05-04 05:59 | 33.44080 | -111.90254 | 2586 ft | 149 kts | 266° |
| 2026-05-04 06:00 | 33.44081 | -111.91439 | 2390 ft | 139 kts | 266° |
| 2026-05-04 06:00 | 33.44080 | -111.92609 | 2218 ft | 139 kts | 266° |
| 2026-05-04 06:00 | 33.44080 | -111.93780 | 2038 ft | 138 kts | 267° |
| 2026-05-04 06:00 | 33.44081 | -111.94931 | 1857 ft | 138 kts | 267° |
| 2026-05-04 06:01 | 33.44083 | -111.96075 | 1695 ft | 134 kts | 268° |
| 2026-05-04 06:01 | 33.44084 | -111.97181 | 1520 ft | 132 kts | 267° |
| 2026-05-04 06:03 | 33.43906 | -112.00316 | 1131 ft | 14 kts | 105° |
| 2026-05-04 06:03 | 33.43902 | -112.00191 | 1131 ft | 15 kts | 94° |
| 2026-05-04 06:05 | 33.43752 | -112.00000 | 1132 ft | 1 kts | 91° |
| 2026-05-04 06:05 | 33.43752 | -111.99982 | 1132 ft | 0 kts | 90° |